createdAt,value
2023-01-29T00:02:15.461Z,12.93
2023-01-29T00:04:42.567Z,12.68
2023-01-29T00:07:09.727Z,13.15
2023-01-29T00:09:36.868Z,12.52
2023-01-29T00:12:04.200Z,12.45
2023-01-29T00:14:31.293Z,13.40
2023-01-29T00:16:58.419Z,12.88
2023-01-29T00:19:25.553Z,12.15
2023-01-29T00:21:52.672Z,14.38
2023-01-29T00:24:19.897Z,13.65
2023-01-29T00:26:47.055Z,14.27
2023-01-29T00:29:14.154Z,14.07
2023-01-29T00:31:44.363Z,13.80
2023-01-29T00:34:11.527Z,13.50
2023-01-29T00:36:38.726Z,17.02
2023-01-29T00:39:11.191Z,13.70
2023-01-29T00:41:57.550Z,13.07
2023-01-29T00:44:43.046Z,12.93
2023-01-29T00:47:28.882Z,14.35
2023-01-29T00:49:56.442Z,13.93
2023-01-29T00:52:24.410Z,14.13
2023-01-29T00:54:52.875Z,13.77
2023-01-29T00:57:20.125Z,13.75
2023-01-29T00:59:47.156Z,12.05
2023-01-29T01:02:33.011Z,15.07
2023-01-29T01:05:02.654Z,14.13
2023-01-29T01:07:30.659Z,13.32
2023-01-29T01:10:17.089Z,14.05
2023-01-29T01:12:44.577Z,13.88
2023-01-29T01:15:11.928Z,13.82
2023-01-29T01:17:39.037Z,12.25
2023-01-29T01:20:06.514Z,12.48
2023-01-29T01:22:33.620Z,12.60
2023-01-29T01:25:00.753Z,13.25
2023-01-29T01:27:27.789Z,12.85
2023-01-29T01:29:54.885Z,12.45
2023-01-29T01:32:22.039Z,13.75
2023-01-29T01:34:49.199Z,15.13
2023-01-29T01:37:16.315Z,13.40
2023-01-29T01:39:43.388Z,15.05
2023-01-29T01:42:13.828Z,14.95
2023-01-29T01:45:04.448Z,14.52
2023-01-29T01:47:43.357Z,14.77
2023-01-29T01:50:22.783Z,13.75
2023-01-29T01:52:53.443Z,15.00
2023-01-29T01:55:25.540Z,14.35
2023-01-29T01:58:00.256Z,14.00
2023-01-29T02:00:27.606Z,14.55
2023-01-29T02:03:14.553Z,14.32
2023-01-29T02:06:00.608Z,14.77
2023-01-29T02:09:11.385Z,15.30
2023-01-29T02:11:39.014Z,14.35
2023-01-29T02:14:06.689Z,14.90
2023-01-29T02:16:36.312Z,14.68
2023-01-29T02:19:14.687Z,15.82
2023-01-29T02:21:44.874Z,15.20
2023-01-29T02:24:49.388Z,15.13
2023-01-29T02:27:50.095Z,14.20
2023-01-29T02:30:28.882Z,14.98
2023-01-29T02:33:30.430Z,15.57
2023-01-29T02:36:13.377Z,15.25
2023-01-29T02:39:10.076Z,16.25
2023-01-29T02:42:02.951Z,16.20
2023-01-29T02:44:33.155Z,15.43
2023-01-29T02:47:12.403Z,14.43
2023-01-29T02:50:02.716Z,15.40
2023-01-29T02:52:54.606Z,16.08
2023-01-29T02:55:30.513Z,15.75
2023-01-29T02:58:05.514Z,15.90
2023-01-29T03:00:40.422Z,16.40
2023-01-29T03:03:31.594Z,16.23
2023-01-29T03:06:12.323Z,16.25
2023-01-29T03:08:46.125Z,14.82
2023-01-29T03:11:16.098Z,15.85
2023-01-29T03:14:06.099Z,15.10
2023-01-29T03:16:51.904Z,16.35
2023-01-29T03:19:36.513Z,17.15
2023-01-29T03:22:08.702Z,16.95
2023-01-29T03:25:08.709Z,15.88
2023-01-29T03:28:00.596Z,16.20
2023-01-29T03:30:49.643Z,15.30
2023-01-29T03:33:19.492Z,15.55
2023-01-29T03:35:53.913Z,16.30
2023-01-29T03:38:21.275Z,15.13
2023-01-29T03:41:07.823Z,15.57
2023-01-29T03:43:39.765Z,15.48
2023-01-29T03:46:31.957Z,15.20
2023-01-29T03:49:22.030Z,14.15
2023-01-29T03:52:01.031Z,14.77
2023-01-29T03:55:11.433Z,15.73
2023-01-29T03:57:45.689Z,15.60
2023-01-29T04:00:22.871Z,16.88
2023-01-29T04:03:16.850Z,15.10
2023-01-29T04:06:11.758Z,16.55
2023-01-29T04:08:59.661Z,16.63
2023-01-29T04:11:30.633Z,15.85
2023-01-29T04:13:58.833Z,16.75
2023-01-29T04:16:48.862Z,16.95
2023-01-29T04:19:16.545Z,17.45
2023-01-29T04:21:45.504Z,16.75
2023-01-29T04:24:14.201Z,17.35
2023-01-29T04:27:04.372Z,18.35
2023-01-29T04:29:44.755Z,16.90
2023-01-29T04:32:38.981Z,18.30
2023-01-29T04:35:51.781Z,16.02
2023-01-29T04:38:42.364Z,16.67
2023-01-29T04:41:35.596Z,17.05
2023-01-29T04:44:28.706Z,16.60
2023-01-29T04:47:17.089Z,16.77
2023-01-29T04:50:13.491Z,17.17
2023-01-29T04:53:05.726Z,16.35
2023-01-29T04:55:50.621Z,17.10
2023-01-29T05:00:50.982Z,15.32
2023-01-29T05:03:18.752Z,16.60
2023-01-29T05:05:48.867Z,16.25
2023-01-29T05:08:20.049Z,16.10
2023-01-29T05:10:52.536Z,16.08
2023-01-29T05:13:22.470Z,15.70
2023-01-29T05:16:19.514Z,15.57
2023-01-29T05:18:47.256Z,16.13
2023-01-29T05:21:14.456Z,15.98
2023-01-29T05:23:53.370Z,14.85
2023-01-29T05:26:40.149Z,16.00
2023-01-29T05:29:07.384Z,16.48
2023-01-29T05:31:34.516Z,16.55
2023-01-29T05:34:01.664Z,16.90
2023-01-29T05:36:28.952Z,17.52
2023-01-29T05:38:56.029Z,17.88
2023-01-29T05:41:23.101Z,16.75
2023-01-29T05:43:50.110Z,19.08
2023-01-29T05:46:17.256Z,23.33
2023-01-29T05:48:44.329Z,21.77
2023-01-29T05:51:11.464Z,19.27
2023-01-29T05:53:38.628Z,18.90
2023-01-29T05:56:06.336Z,19.35
2023-01-29T05:58:34.275Z,18.95
2023-01-29T06:01:24.670Z,19.70
2023-01-29T06:03:52.132Z,18.73
2023-01-29T06:06:19.194Z,19.55
2023-01-29T06:08:46.321Z,19.02
2023-01-29T06:11:15.328Z,20.48
2023-01-29T06:13:42.728Z,19.77
2023-01-29T06:16:11.393Z,18.38
2023-01-29T06:18:39.512Z,19.10
2023-01-29T06:21:09.681Z,19.20
2023-01-29T06:23:36.789Z,16.67
2023-01-29T06:26:10.515Z,17.48
2023-01-29T06:28:37.753Z,19.37
2023-01-29T06:33:53.795Z,20.85
2023-01-29T06:36:20.917Z,20.85
2023-01-29T06:38:48.571Z,16.42
2023-01-29T06:41:18.569Z,17.38
2023-01-29T06:43:46.317Z,17.92
2023-01-29T06:46:13.475Z,16.60
2023-01-29T06:48:40.541Z,35.35
2023-01-29T06:51:09.203Z,18.38
2023-01-29T06:53:37.999Z,15.93
2023-01-29T06:56:06.233Z,14.63
2023-01-29T06:58:33.467Z,16.40
2023-01-29T07:01:08.445Z,17.40
2023-01-29T07:03:36.059Z,15.55
2023-01-29T07:06:03.410Z,15.57
2023-01-29T07:08:30.707Z,14.88
2023-01-29T07:11:01.702Z,15.20
2023-01-29T07:13:29.441Z,15.65
2023-01-29T07:16:04.162Z,15.38
2023-01-29T07:18:32.431Z,17.35
2023-01-29T07:20:59.704Z,15.18
2023-01-29T07:23:26.932Z,15.10
2023-01-29T07:25:54.058Z,14.88
2023-01-29T07:28:21.325Z,14.52
2023-01-29T07:30:48.697Z,16.08
2023-01-29T07:33:15.836Z,16.75
2023-01-29T07:35:43.763Z,15.27
2023-01-29T07:38:11.788Z,16.15
2023-01-29T07:40:40.102Z,18.42
2023-01-29T07:43:08.652Z,21.80
2023-01-29T07:45:37.419Z,19.13
2023-01-29T07:48:05.899Z,18.10
2023-01-29T07:50:34.883Z,16.73
2023-01-29T07:53:03.143Z,17.30
2023-01-29T07:55:30.974Z,16.10
2023-01-29T07:58:00.156Z,14.95
2023-01-29T08:00:27.977Z,14.35
2023-01-29T08:03:02.647Z,14.25
2023-01-29T08:05:29.998Z,14.75
2023-01-29T08:08:06.111Z,14.60
2023-01-29T08:10:37.680Z,14.85
2023-01-29T08:13:07.446Z,13.23
2023-01-29T08:15:37.194Z,15.50
2023-01-29T08:18:06.044Z,14.80
2023-01-29T08:20:33.200Z,13.68
2023-01-29T08:23:13.344Z,17.05
2023-01-29T08:25:40.570Z,17.38
2023-01-29T08:28:08.240Z,17.20
2023-01-29T08:30:36.178Z,18.50
2023-01-29T08:33:04.721Z,17.38
2023-01-29T08:35:31.942Z,14.27
2023-01-29T08:38:01.772Z,12.93
2023-01-29T08:40:34.145Z,12.27
2023-01-29T08:43:09.016Z,13.15
2023-01-29T08:45:40.158Z,13.32
2023-01-29T08:48:08.082Z,12.57
2023-01-29T08:50:35.711Z,13.57
2023-01-29T08:53:08.162Z,11.82
2023-01-29T08:55:39.767Z,12.13
2023-01-29T08:58:08.722Z,12.18
2023-01-29T09:00:36.058Z,11.73
2023-01-29T09:03:04.054Z,12.48
2023-01-29T09:05:31.577Z,12.20
2023-01-29T09:07:59.691Z,12.45
2023-01-29T09:10:27.262Z,13.43
2023-01-29T09:12:54.364Z,12.95
2023-01-29T09:15:21.424Z,14.90
2023-01-29T09:17:49.802Z,13.70
2023-01-29T09:20:17.876Z,10.73
2023-01-29T09:22:46.027Z,11.23
2023-01-29T09:25:13.605Z,12.10
2023-01-29T09:27:40.683Z,11.55
2023-01-29T09:30:08.386Z,12.23
2023-01-29T09:35:23.840Z,11.23
2023-01-29T09:37:52.389Z,11.02
2023-01-29T09:40:49.170Z,10.57
2023-01-29T09:43:53.233Z,9.07
2023-01-29T09:46:42.149Z,9.88
2023-01-29T09:49:31.830Z,9.90
2023-01-29T09:52:22.343Z,8.93
2023-01-29T09:55:20.743Z,9.82
2023-01-29T09:57:55.843Z,10.20
2023-01-29T10:00:47.744Z,9.52
2023-01-29T10:03:39.116Z,9.55
2023-01-29T10:06:16.178Z,8.73
2023-01-29T10:09:05.843Z,9.05
2023-01-29T10:11:50.478Z,9.68
2023-01-29T10:14:38.174Z,11.45
2023-01-29T10:17:26.156Z,10.15
2023-01-29T10:20:12.081Z,10.52
2023-01-29T10:23:13.030Z,9.98
2023-01-29T10:25:42.314Z,10.25
2023-01-29T10:28:32.006Z,10.77
2023-01-29T10:31:04.613Z,9.65
2023-01-29T10:34:03.468Z,10.13
2023-01-29T10:36:48.150Z,9.68
2023-01-29T10:39:23.762Z,11.27
2023-01-29T10:42:15.500Z,14.20
2023-01-29T10:45:03.884Z,12.55
2023-01-29T10:48:09.310Z,10.52
2023-01-29T10:51:00.258Z,9.80
2023-01-29T10:53:53.603Z,8.80
2023-01-29T10:56:38.385Z,7.55
2023-01-29T10:59:39.092Z,8.80
2023-01-29T11:02:18.861Z,10.07
2023-01-29T11:04:46.372Z,10.48
2023-01-29T11:07:16.607Z,10.73
2023-01-29T11:10:11.765Z,10.48
2023-01-29T11:12:39.894Z,7.40
2023-01-29T11:15:27.387Z,8.93
2023-01-29T11:18:18.585Z,7.90
2023-01-29T11:20:46.631Z,8.25
2023-01-29T11:23:32.343Z,11.52
2023-01-29T11:26:01.018Z,10.95
2023-01-29T11:28:43.378Z,8.80
2023-01-29T11:31:23.544Z,7.82
2023-01-29T11:33:54.190Z,8.57
2023-01-29T11:36:33.323Z,8.35
2023-01-29T11:39:22.429Z,8.57
2023-01-29T11:41:58.822Z,7.03
2023-01-29T11:44:36.729Z,7.07
2023-01-29T11:47:18.974Z,7.65
2023-01-29T11:49:57.859Z,8.10
2023-01-29T11:52:37.952Z,7.70
2023-01-29T11:55:49.489Z,7.35
2023-01-29T11:58:30.376Z,9.63
2023-01-29T12:00:59.398Z,10.95
2023-01-29T12:03:33.107Z,9.95
2023-01-29T12:06:09.475Z,9.23
2023-01-29T12:08:40.336Z,6.90
2023-01-29T12:11:29.658Z,7.57
2023-01-29T12:14:02.741Z,9.55
2023-01-29T12:16:32.809Z,10.10
2023-01-29T12:19:33.730Z,12.32
2023-01-29T12:22:07.429Z,7.80
2023-01-29T12:24:57.819Z,12.33
2023-01-29T12:27:37.015Z,12.85
2023-01-29T12:30:25.357Z,9.52
2023-01-29T12:33:25.634Z,9.95
2023-01-29T12:36:11.805Z,7.78
2023-01-29T12:38:41.196Z,9.35
2023-01-29T12:42:05.229Z,8.40
2023-01-29T12:44:42.687Z,8.05
2023-01-29T12:47:26.714Z,8.23
2023-01-29T12:49:58.323Z,8.23
2023-01-29T12:52:50.844Z,8.35
2023-01-29T12:55:33.249Z,7.93
2023-01-29T12:58:25.337Z,8.57
2023-01-29T13:00:57.127Z,8.63
2023-01-29T13:03:53.360Z,8.43
2023-01-29T13:06:50.059Z,9.52
2023-01-29T13:09:24.991Z,11.75
2023-01-29T13:12:11.723Z,7.40
2023-01-29T13:14:48.792Z,8.68
2023-01-29T13:17:26.567Z,8.18
2023-01-29T13:19:58.323Z,8.43
2023-01-29T13:22:27.390Z,8.73
2023-01-29T13:25:04.757Z,8.15
2023-01-29T13:27:37.192Z,9.18
2023-01-29T13:30:05.472Z,8.50
2023-01-29T13:32:35.384Z,8.60
2023-01-29T13:35:13.455Z,8.48
2023-01-29T13:37:51.259Z,8.75
2023-01-29T13:40:36.668Z,9.77
2023-01-29T13:43:04.121Z,8.35
2023-01-29T13:45:45.519Z,9.15
2023-01-29T13:48:37.073Z,9.18
2023-01-29T13:51:15.974Z,9.32
2023-01-29T13:53:44.410Z,10.55
2023-01-29T13:56:34.334Z,9.15
2023-01-29T13:59:05.475Z,8.70
2023-01-29T14:01:47.890Z,9.25
2023-01-29T14:04:31.451Z,9.60
2023-01-29T14:06:59.365Z,14.23
2023-01-29T14:09:39.091Z,12.45
2023-01-29T14:12:32.935Z,10.50
2023-01-29T14:15:29.303Z,9.45
2023-01-29T14:18:16.736Z,9.45
2023-01-29T14:21:00.298Z,9.70
2023-01-29T14:23:33.978Z,10.07
2023-01-29T14:26:03.322Z,10.20
2023-01-29T14:28:32.745Z,11.65
2023-01-29T14:31:00.768Z,12.05
2023-01-29T14:33:34.435Z,10.77
2023-01-29T14:36:13.700Z,10.63
2023-01-29T14:38:47.541Z,10.20
2023-01-29T14:41:27.227Z,9.97
2023-01-29T14:44:32.489Z,11.55
2023-01-29T14:46:59.694Z,10.10
2023-01-29T14:49:55.525Z,10.80
2023-01-29T14:52:47.517Z,11.57
2023-01-29T14:55:39.294Z,12.50
2023-01-29T14:58:15.587Z,12.82
2023-01-29T15:00:46.394Z,12.00
2023-01-29T15:03:43.291Z,11.93
2023-01-29T15:06:17.908Z,11.18
2023-01-29T15:09:09.696Z,11.02
2023-01-29T15:11:47.739Z,9.38
2023-01-29T15:14:24.868Z,11.00
2023-01-29T15:17:09.870Z,11.18
2023-01-29T15:19:37.549Z,11.23
2023-01-29T15:22:19.032Z,10.30
2023-01-29T15:24:48.636Z,12.20
2023-01-29T15:27:21.464Z,12.38
2023-01-29T15:29:58.340Z,13.32
2023-01-29T15:32:31.457Z,17.00
2023-01-29T15:35:00.773Z,17.45
2023-01-29T15:37:36.147Z,14.63
2023-01-29T15:40:12.216Z,12.43
2023-01-29T15:42:50.102Z,11.40
2023-01-29T15:45:32.147Z,10.38
2023-01-29T15:48:01.693Z,10.93
2023-01-29T15:50:30.806Z,10.88
2023-01-29T15:53:03.981Z,11.55
2023-01-29T15:55:32.441Z,12.02
2023-01-29T15:58:01.927Z,13.00
2023-01-29T16:00:30.898Z,13.02
2023-01-29T16:03:01.684Z,16.55
2023-01-29T16:05:31.028Z,14.48
2023-01-29T16:08:00.340Z,13.43
2023-01-29T16:10:31.863Z,11.60
2023-01-29T16:13:00.796Z,11.95
2023-01-29T16:15:37.864Z,11.52
2023-01-29T16:18:21.978Z,11.68
2023-01-29T16:20:57.547Z,22.10
2023-01-29T16:23:29.300Z,12.65
2023-01-29T16:26:04.152Z,14.88
2023-01-29T16:28:32.246Z,14.88
2023-01-29T16:31:04.273Z,14.65
2023-01-29T16:33:37.294Z,13.45
2023-01-29T16:36:16.552Z,12.65
2023-01-29T16:38:51.836Z,14.45
2023-01-29T16:41:22.649Z,13.38
2023-01-29T16:44:00.591Z,13.70
2023-01-29T16:46:46.608Z,14.05
2023-01-29T16:49:29.706Z,14.82
2023-01-29T16:52:15.050Z,15.27
2023-01-29T16:54:46.595Z,17.98
2023-01-29T16:57:28.308Z,19.05
2023-01-29T17:00:04.619Z,21.40
2023-01-29T17:02:43.360Z,18.88
2023-01-29T17:05:31.045Z,19.02
2023-01-29T17:08:00.282Z,19.40
2023-01-29T17:10:30.310Z,19.05
2023-01-29T17:13:10.436Z,15.52
2023-01-29T17:15:47.525Z,17.02
2023-01-29T17:18:25.676Z,15.73
2023-01-29T17:20:55.831Z,16.60
2023-01-29T17:23:23.838Z,17.77
2023-01-29T17:25:55.503Z,16.30
2023-01-29T17:28:23.362Z,15.52
2023-01-29T17:31:05.262Z,12.82
2023-01-29T17:33:34.386Z,14.85
2023-01-29T17:36:02.095Z,14.60
2023-01-29T17:38:30.052Z,13.32
2023-01-29T17:41:07.180Z,13.43
2023-01-29T17:43:37.210Z,14.50
2023-01-29T17:46:05.407Z,13.65
2023-01-29T17:48:33.642Z,16.95
2023-01-29T17:51:04.904Z,16.15
2023-01-29T17:53:45.211Z,16.67
2023-01-29T17:56:24.797Z,16.05
2023-01-29T17:58:54.062Z,18.65
2023-01-29T18:01:22.028Z,17.63
2023-01-29T18:03:51.273Z,15.88
2023-01-29T18:06:29.579Z,18.30
2023-01-29T18:08:57.868Z,16.65
2023-01-29T18:11:25.960Z,16.40
2023-01-29T18:13:54.134Z,15.50
2023-01-29T18:16:24.823Z,14.90
2023-01-29T18:18:53.481Z,15.10
2023-01-29T18:21:21.704Z,15.77
2023-01-29T18:23:49.416Z,15.50
2023-01-29T18:26:18.309Z,16.35
2023-01-29T18:28:46.396Z,17.65
2023-01-29T18:31:14.962Z,16.92
2023-01-29T18:33:44.569Z,15.52
2023-01-29T18:36:12.184Z,16.17
2023-01-29T18:38:40.046Z,15.95
2023-01-29T18:41:12.796Z,16.77
2023-01-29T18:43:42.574Z,17.15
2023-01-29T18:46:10.802Z,17.05
2023-01-29T18:48:39.555Z,17.02
2023-01-29T18:51:09.758Z,17.33
2023-01-29T18:53:38.058Z,16.85
2023-01-29T18:56:08.958Z,16.73
2023-01-29T18:58:40.241Z,17.55
2023-01-29T19:01:13.530Z,17.30
2023-01-29T19:03:46.109Z,19.85
2023-01-29T19:06:15.698Z,16.92
2023-01-29T19:08:44.673Z,17.58
2023-01-29T19:11:14.155Z,16.65
2023-01-29T19:13:43.519Z,17.63
2023-01-29T19:16:14.210Z,17.30
2023-01-29T19:18:41.919Z,15.50
2023-01-29T19:21:14.810Z,16.77
2023-01-29T19:23:44.366Z,17.17
2023-01-29T19:26:15.376Z,17.73
2023-01-29T19:28:43.524Z,20.20
2023-01-29T19:31:12.171Z,20.70
2023-01-29T19:33:40.871Z,19.70
2023-01-29T19:36:09.558Z,20.60
2023-01-29T19:38:39.355Z,19.75
2023-01-29T19:41:07.408Z,22.45
2023-01-29T19:43:35.710Z,18.08
2023-01-29T19:46:03.849Z,17.92
2023-01-29T19:48:31.922Z,18.60
2023-01-29T19:51:06.125Z,20.13
2023-01-29T19:53:34.385Z,18.48
2023-01-29T19:56:11.743Z,18.13
2023-01-29T19:58:39.904Z,18.17
2023-01-29T20:01:17.741Z,20.52
2023-01-29T20:03:47.482Z,19.48
2023-01-29T20:06:18.857Z,15.80
2023-01-29T20:08:48.523Z,17.40
2023-01-29T20:11:19.088Z,19.45
2023-01-29T20:13:52.337Z,19.42
2023-01-29T20:16:22.674Z,18.83
2023-01-29T20:18:50.178Z,16.77
2023-01-29T20:21:23.110Z,17.90
2023-01-29T20:23:55.302Z,16.90
2023-01-29T20:26:23.686Z,17.27
2023-01-29T20:29:09.884Z,19.88
2023-01-29T20:31:38.059Z,15.75
2023-01-29T20:34:07.044Z,16.08
2023-01-29T20:36:35.589Z,15.23
2023-01-29T20:39:05.673Z,17.90
2023-01-29T20:41:35.592Z,17.83
2023-01-29T20:44:03.564Z,16.08
2023-01-29T20:46:31.325Z,14.85
2023-01-29T20:48:59.194Z,14.35
2023-01-29T20:51:26.861Z,14.68
2023-01-29T20:53:56.350Z,15.38
2023-01-29T20:56:37.344Z,15.68
2023-01-29T20:59:11.763Z,14.35
2023-01-29T21:01:39.903Z,14.77
2023-01-29T21:04:07.997Z,15.80
2023-01-29T21:06:36.161Z,15.57
2023-01-29T21:09:04.351Z,14.82
2023-01-29T21:11:34.127Z,16.02
2023-01-29T21:14:02.683Z,16.40
2023-01-29T21:16:30.794Z,15.02
2023-01-29T21:18:59.990Z,13.50
2023-01-29T21:21:28.119Z,13.95
2023-01-29T21:23:56.597Z,14.30
2023-01-29T21:26:24.389Z,13.85
2023-01-29T21:28:51.905Z,14.55
2023-01-29T21:31:19.559Z,15.10
2023-01-29T21:33:47.070Z,14.15
2023-01-29T21:36:15.314Z,14.10
2023-01-29T21:38:43.046Z,14.55
2023-01-29T21:41:12.059Z,14.60
2023-01-29T21:43:39.930Z,14.05
2023-01-29T21:46:14.366Z,13.40
2023-01-29T21:48:42.039Z,13.85
2023-01-29T21:51:09.695Z,14.75
2023-01-29T21:53:37.492Z,14.15
2023-01-29T21:56:06.156Z,14.68
2023-01-29T21:58:33.518Z,14.52
2023-01-29T22:01:35.548Z,13.25
2023-01-29T22:03:47.899Z,14.45
2023-01-29T22:06:15.959Z,14.30
2023-01-29T22:08:43.233Z,14.57
2023-01-29T22:11:11.009Z,14.82
2023-01-29T22:13:38.207Z,15.20
2023-01-29T22:16:06.165Z,14.55
2023-01-29T22:18:38.590Z,13.63
2023-01-29T22:21:06.417Z,15.20
2023-01-29T22:23:33.526Z,14.60
2023-01-29T22:26:07.699Z,14.93
2023-01-29T22:28:35.289Z,15.55
2023-01-29T22:31:03.539Z,15.20
2023-01-29T22:33:30.883Z,14.70
2023-01-29T22:35:58.279Z,15.15
2023-01-29T22:38:25.480Z,15.13
2023-01-29T22:40:57.372Z,15.57
2023-01-29T22:43:26.157Z,15.13
2023-01-29T22:45:53.226Z,15.95
2023-01-29T22:48:20.316Z,14.80
2023-01-29T22:50:53.977Z,17.15
2023-01-29T22:53:21.159Z,15.20
2023-01-29T22:55:55.908Z,15.68
2023-01-29T22:58:22.993Z,16.33
2023-01-29T23:00:51.533Z,16.25
2023-01-29T23:03:18.644Z,16.13
2023-01-29T23:05:45.756Z,16.27
2023-01-29T23:08:12.805Z,15.98
2023-01-29T23:10:39.923Z,16.63
2023-01-29T23:13:07.001Z,17.30
2023-01-29T23:15:34.111Z,17.27
2023-01-29T23:18:01.375Z,17.42
2023-01-29T23:20:28.579Z,17.52
2023-01-29T23:22:55.843Z,16.85
2023-01-29T23:25:23.033Z,16.35
2023-01-29T23:27:50.088Z,17.27
2023-01-29T23:30:17.647Z,17.48
2023-01-29T23:32:45.203Z,17.73
2023-01-29T23:35:12.299Z,17.35
2023-01-29T23:37:39.372Z,17.83
2023-01-29T23:40:07.062Z,16.75
2023-01-29T23:42:34.107Z,17.27
2023-01-29T23:45:01.201Z,17.90
2023-01-29T23:47:28.247Z,16.52
2023-01-29T23:49:55.319Z,16.35
2023-01-29T23:52:22.403Z,15.43
2023-01-29T23:54:49.518Z,16.52
2023-01-29T23:57:16.551Z,17.35
2023-01-29T23:59:43.672Z,16.90
